sensor_id;sensor_type;location;lat;lon;timestamp;P1;durP1;ratioP1;P2;durP2;ratioP2
70253;SDS011;57649;42.968;1.608;2023-04-01T00:01:35;15.32;;;3.42;;
70253;SDS011;57649;42.968;1.608;2023-04-01T00:04:01;12.07;;;2.78;;
70253;SDS011;57649;42.968;1.608;2023-04-01T00:06:27;12.63;;;3.10;;
70253;SDS011;57649;42.968;1.608;2023-04-01T00:08:53;10.75;;;3.05;;
70253;SDS011;57649;42.968;1.608;2023-04-01T00:11:18;12.30;;;3.90;;
70253;SDS011;57649;42.968;1.608;2023-04-01T00:13:44;12.48;;;3.60;;
70253;SDS011;57649;42.968;1.608;2023-04-01T00:16:10;17.20;;;3.13;;
70253;SDS011;57649;42.968;1.608;2023-04-01T00:18:37;13.60;;;2.97;;
70253;SDS011;57649;42.968;1.608;2023-04-01T00:21:03;14.73;;;3.55;;
70253;SDS011;57649;42.968;1.608;2023-04-01T00:23:29;13.50;;;3.03;;
70253;SDS011;57649;42.968;1.608;2023-04-01T00:25:54;12.40;;;3.42;;
70253;SDS011;57649;42.968;1.608;2023-04-01T00:28:20;17.42;;;3.60;;
70253;SDS011;57649;42.968;1.608;2023-04-01T00:30:46;14.65;;;2.90;;
70253;SDS011;57649;42.968;1.608;2023-04-01T00:33:12;11.43;;;3.47;;
70253;SDS011;57649;42.968;1.608;2023-04-01T00:35:38;18.92;;;3.65;;
70253;SDS011;57649;42.968;1.608;2023-04-01T00:38:03;11.27;;;3.10;;
70253;SDS011;57649;42.968;1.608;2023-04-01T00:40:37;18.48;;;3.78;;
70253;SDS011;57649;42.968;1.608;2023-04-01T00:43:10;14.43;;;3.00;;
70253;SDS011;57649;42.968;1.608;2023-04-01T00:45:43;16.15;;;2.97;;
70253;SDS011;57649;42.968;1.608;2023-04-01T00:48:25;12.18;;;3.05;;
70253;SDS011;57649;42.968;1.608;2023-04-01T00:51:03;12.98;;;3.30;;
70253;SDS011;57649;42.968;1.608;2023-04-01T00:53:31;13.13;;;3.65;;
70253;SDS011;57649;42.968;1.608;2023-04-01T00:56:07;14.07;;;2.88;;
70253;SDS011;57649;42.968;1.608;2023-04-01T00:58:38;14.73;;;4.38;;
70253;SDS011;57649;42.968;1.608;2023-04-01T01:01:08;14.18;;;2.97;;
70253;SDS011;57649;42.968;1.608;2023-04-01T01:03:35;15.25;;;3.28;;
70253;SDS011;57649;42.968;1.608;2023-04-01T01:06:08;15.43;;;3.50;;
70253;SDS011;57649;42.968;1.608;2023-04-01T01:33:52;10.90;;;2.55;;
70253;SDS011;57649;42.968;1.608;2023-04-01T01:36:25;14.52;;;3.63;;
70253;SDS011;57649;42.968;1.608;2023-04-01T01:38:56;9.80;;;2.78;;
70253;SDS011;57649;42.968;1.608;2023-04-01T01:41:22;12.27;;;2.83;;
70253;SDS011;57649;42.968;1.608;2023-04-01T01:43:51;11.00;;;2.85;;
70253;SDS011;57649;42.968;1.608;2023-04-01T01:46:21;10.55;;;2.90;;
70253;SDS011;57649;42.968;1.608;2023-04-01T01:48:48;11.45;;;2.80;;
70253;SDS011;57649;42.968;1.608;2023-04-01T01:51:15;12.30;;;2.92;;
70253;SDS011;57649;42.968;1.608;2023-04-01T01:53:41;10.07;;;2.90;;
70253;SDS011;57649;42.968;1.608;2023-04-01T01:56:07;14.65;;;3.20;;
70253;SDS011;57649;42.968;1.608;2023-04-01T01:58:37;10.75;;;2.70;;
70253;SDS011;57649;42.968;1.608;2023-04-01T02:01:09;12.80;;;2.85;;
70253;SDS011;57649;42.968;1.608;2023-04-01T02:03:39;10.52;;;3.20;;
70253;SDS011;57649;42.968;1.608;2023-04-01T02:06:07;11.73;;;4.03;;
70253;SDS011;57649;42.968;1.608;2023-04-01T02:08:36;16.45;;;3.40;;
70253;SDS011;57649;42.968;1.608;2023-04-01T02:11:07;11.63;;;3.00;;
70253;SDS011;57649;42.968;1.608;2023-04-01T02:16:27;11.88;;;3.10;;
70253;SDS011;57649;42.968;1.608;2023-04-01T02:18:56;14.55;;;3.05;;
70253;SDS011;57649;42.968;1.608;2023-04-01T02:21:26;13.05;;;2.95;;
70253;SDS011;57649;42.968;1.608;2023-04-01T02:23:55;14.10;;;2.80;;
70253;SDS011;57649;42.968;1.608;2023-04-01T02:26:23;12.13;;;2.40;;
70253;SDS011;57649;42.968;1.608;2023-04-01T02:28:51;14.38;;;3.08;;
70253;SDS011;57649;42.968;1.608;2023-04-01T02:31:18;14.40;;;3.20;;
70253;SDS011;57649;42.968;1.608;2023-04-01T02:33:44;14.30;;;3.22;;
70253;SDS011;57649;42.968;1.608;2023-04-01T02:36:14;14.57;;;3.13;;
70253;SDS011;57649;42.968;1.608;2023-04-01T02:38:41;10.65;;;3.00;;
70253;SDS011;57649;42.968;1.608;2023-04-01T02:41:09;12.90;;;3.03;;
70253;SDS011;57649;42.968;1.608;2023-04-01T02:43:35;12.13;;;3.15;;
70253;SDS011;57649;42.968;1.608;2023-04-01T02:46:00;15.02;;;2.88;;
70253;SDS011;57649;42.968;1.608;2023-04-01T02:48:26;10.43;;;2.97;;
70253;SDS011;57649;42.968;1.608;2023-04-01T02:50:52;11.68;;;2.80;;
70253;SDS011;57649;42.968;1.608;2023-04-01T02:53:18;11.88;;;3.00;;
70253;SDS011;57649;42.968;1.608;2023-04-01T02:55:43;16.70;;;3.45;;
70253;SDS011;57649;42.968;1.608;2023-04-01T02:58:09;14.30;;;2.70;;
70253;SDS011;57649;42.968;1.608;2023-04-01T03:00:35;12.43;;;2.78;;
70253;SDS011;57649;42.968;1.608;2023-04-01T03:03:01;13.88;;;2.75;;
70253;SDS011;57649;42.968;1.608;2023-04-01T03:05:27;11.70;;;3.05;;
70253;SDS011;57649;42.968;1.608;2023-04-01T03:07:53;13.27;;;2.67;;
70253;SDS011;57649;42.968;1.608;2023-04-01T03:10:18;14.23;;;3.63;;
70253;SDS011;57649;42.968;1.608;2023-04-01T03:12:43;11.15;;;3.08;;
70253;SDS011;57649;42.968;1.608;2023-04-01T03:15:09;12.55;;;3.15;;
70253;SDS011;57649;42.968;1.608;2023-04-01T03:17:36;17.65;;;4.50;;
70253;SDS011;57649;42.968;1.608;2023-04-01T03:20:01;12.20;;;2.78;;
70253;SDS011;57649;42.968;1.608;2023-04-01T03:22:29;17.83;;;3.20;;
70253;SDS011;57649;42.968;1.608;2023-04-01T03:24:55;10.45;;;3.42;;
70253;SDS011;57649;42.968;1.608;2023-04-01T03:27:20;12.98;;;3.05;;
70253;SDS011;57649;42.968;1.608;2023-04-01T03:29:46;10.38;;;2.53;;
70253;SDS011;57649;42.968;1.608;2023-04-01T03:32:11;13.90;;;2.88;;
70253;SDS011;57649;42.968;1.608;2023-04-01T03:34:37;13.77;;;3.03;;
70253;SDS011;57649;42.968;1.608;2023-04-01T03:37:02;16.90;;;2.95;;
70253;SDS011;57649;42.968;1.608;2023-04-01T03:39:27;15.07;;;3.15;;
70253;SDS011;57649;42.968;1.608;2023-04-01T03:41:53;15.30;;;3.03;;
70253;SDS011;57649;42.968;1.608;2023-04-01T03:44:18;17.73;;;3.22;;
70253;SDS011;57649;42.968;1.608;2023-04-01T03:46:44;11.13;;;2.95;;
70253;SDS011;57649;42.968;1.608;2023-04-01T03:49:09;14.02;;;3.13;;
70253;SDS011;57649;42.968;1.608;2023-04-01T03:51:43;15.10;;;3.22;;
70253;SDS011;57649;42.968;1.608;2023-04-01T03:54:09;11.38;;;2.67;;
70253;SDS011;57649;42.968;1.608;2023-04-01T03:56:35;15.77;;;3.10;;
70253;SDS011;57649;42.968;1.608;2023-04-01T03:59:02;13.40;;;2.90;;
70253;SDS011;57649;42.968;1.608;2023-04-01T04:01:29;14.43;;;3.10;;
70253;SDS011;57649;42.968;1.608;2023-04-01T04:03:54;14.63;;;3.35;;
70253;SDS011;57649;42.968;1.608;2023-04-01T04:06:20;18.52;;;4.07;;
70253;SDS011;57649;42.968;1.608;2023-04-01T04:08:46;10.88;;;3.10;;
70253;SDS011;57649;42.968;1.608;2023-04-01T04:11:11;9.60;;;2.63;;
70253;SDS011;57649;42.968;1.608;2023-04-01T04:13:36;11.77;;;3.20;;
70253;SDS011;57649;42.968;1.608;2023-04-01T04:16:02;12.32;;;3.10;;
70253;SDS011;57649;42.968;1.608;2023-04-01T04:18:28;9.63;;;2.70;;
70253;SDS011;57649;42.968;1.608;2023-04-01T04:20:54;14.82;;;3.33;;
70253;SDS011;57649;42.968;1.608;2023-04-01T04:23:19;14.35;;;3.13;;
70253;SDS011;57649;42.968;1.608;2023-04-01T04:25:56;14.15;;;2.97;;
70253;SDS011;57649;42.968;1.608;2023-04-01T04:28:21;19.23;;;3.53;;
70253;SDS011;57649;42.968;1.608;2023-04-01T04:30:47;17.40;;;3.67;;
70253;SDS011;57649;42.968;1.608;2023-04-01T04:33:12;11.68;;;2.80;;
70253;SDS011;57649;42.968;1.608;2023-04-01T04:35:38;11.10;;;2.75;;
70253;SDS011;57649;42.968;1.608;2023-04-01T04:38:03;9.55;;;2.92;;
70253;SDS011;57649;42.968;1.608;2023-04-01T04:40:28;12.45;;;2.72;;
70253;SDS011;57649;42.968;1.608;2023-04-01T04:42:54;12.20;;;2.60;;
70253;SDS011;57649;42.968;1.608;2023-04-01T04:45:19;9.73;;;2.83;;
70253;SDS011;57649;42.968;1.608;2023-04-01T04:47:44;12.23;;;2.70;;
70253;SDS011;57649;42.968;1.608;2023-04-01T04:50:10;15.38;;;2.70;;
70253;SDS011;57649;42.968;1.608;2023-04-01T04:52:36;12.65;;;2.75;;
70253;SDS011;57649;42.968;1.608;2023-04-01T04:55:02;16.33;;;3.55;;
70253;SDS011;57649;42.968;1.608;2023-04-01T04:57:28;13.25;;;2.95;;
70253;SDS011;57649;42.968;1.608;2023-04-01T04:59:53;9.27;;;2.30;;
70253;SDS011;57649;42.968;1.608;2023-04-01T05:02:18;12.48;;;3.47;;
70253;SDS011;57649;42.968;1.608;2023-04-01T05:04:44;13.50;;;2.67;;
70253;SDS011;57649;42.968;1.608;2023-04-01T05:07:10;13.38;;;3.15;;
70253;SDS011;57649;42.968;1.608;2023-04-01T05:09:35;15.38;;;3.33;;
70253;SDS011;57649;42.968;1.608;2023-04-01T05:12:00;17.52;;;4.07;;
70253;SDS011;57649;42.968;1.608;2023-04-01T05:14:26;16.13;;;3.25;;
70253;SDS011;57649;42.968;1.608;2023-04-01T05:16:51;13.55;;;3.25;;
70253;SDS011;57649;42.968;1.608;2023-04-01T05:19:17;14.25;;;3.55;;
70253;SDS011;57649;42.968;1.608;2023-04-01T05:21:43;11.63;;;2.72;;
70253;SDS011;57649;42.968;1.608;2023-04-01T05:24:09;11.50;;;2.60;;
70253;SDS011;57649;42.968;1.608;2023-04-01T05:26:35;12.95;;;2.97;;
70253;SDS011;57649;42.968;1.608;2023-04-01T05:29:01;11.48;;;3.00;;
70253;SDS011;57649;42.968;1.608;2023-04-01T05:31:27;10.70;;;3.03;;
70253;SDS011;57649;42.968;1.608;2023-04-01T05:33:53;14.27;;;2.92;;
70253;SDS011;57649;42.968;1.608;2023-04-01T05:36:19;13.43;;;3.40;;
70253;SDS011;57649;42.968;1.608;2023-04-01T05:38:44;9.88;;;2.63;;
70253;SDS011;57649;42.968;1.608;2023-04-01T05:41:14;11.45;;;2.85;;
70253;SDS011;57649;42.968;1.608;2023-04-01T05:43:40;15.85;;;3.10;;
70253;SDS011;57649;42.968;1.608;2023-04-01T05:46:06;14.02;;;2.85;;
70253;SDS011;57649;42.968;1.608;2023-04-01T05:48:32;17.98;;;3.75;;
70253;SDS011;57649;42.968;1.608;2023-04-01T05:51:00;10.48;;;2.60;;
70253;SDS011;57649;42.968;1.608;2023-04-01T05:53:25;14.35;;;2.95;;
70253;SDS011;57649;42.968;1.608;2023-04-01T05:55:51;12.23;;;2.33;;
70253;SDS011;57649;42.968;1.608;2023-04-01T05:58:16;14.50;;;2.95;;
70253;SDS011;57649;42.968;1.608;2023-04-01T06:00:42;12.93;;;3.25;;
70253;SDS011;57649;42.968;1.608;2023-04-01T06:03:07;15.02;;;3.35;;
70253;SDS011;57649;42.968;1.608;2023-04-01T06:05:42;8.77;;;2.60;;
70253;SDS011;57649;42.968;1.608;2023-04-01T06:08:13;14.50;;;3.00;;
70253;SDS011;57649;42.968;1.608;2023-04-01T06:11:01;15.40;;;3.10;;
70253;SDS011;57649;42.968;1.608;2023-04-01T06:33:19;12.30;;;3.08;;
70253;SDS011;57649;42.968;1.608;2023-04-01T06:41:45;12.45;;;3.63;;
70253;SDS011;57649;42.968;1.608;2023-04-01T06:52:51;12.48;;;3.63;;
70253;SDS011;57649;42.968;1.608;2023-04-01T06:55:42;11.40;;;3.58;;
70253;SDS011;57649;42.968;1.608;2023-04-01T06:58:13;11.63;;;3.28;;
70253;SDS011;57649;42.968;1.608;2023-04-01T07:00:46;14.05;;;3.65;;
70253;SDS011;57649;42.968;1.608;2023-04-01T07:03:20;11.10;;;3.67;;
70253;SDS011;57649;42.968;1.608;2023-04-01T07:05:51;17.33;;;3.80;;
70253;SDS011;57649;42.968;1.608;2023-04-01T07:08:22;17.48;;;4.47;;
70253;SDS011;57649;42.968;1.608;2023-04-01T07:11:08;11.98;;;3.25;;
70253;SDS011;57649;42.968;1.608;2023-04-01T07:13:47;11.20;;;3.03;;
70253;SDS011;57649;42.968;1.608;2023-04-01T07:21:37;13.52;;;3.63;;
70253;SDS011;57649;42.968;1.608;2023-04-01T07:24:21;14.25;;;3.63;;
70253;SDS011;57649;42.968;1.608;2023-04-01T07:26:55;13.48;;;3.85;;
70253;SDS011;57649;42.968;1.608;2023-04-01T07:29:22;16.48;;;3.58;;
70253;SDS011;57649;42.968;1.608;2023-04-01T07:34:55;11.30;;;3.60;;
70253;SDS011;57649;42.968;1.608;2023-04-01T07:39:55;13.50;;;3.50;;
70253;SDS011;57649;42.968;1.608;2023-04-01T07:43:10;12.45;;;3.65;;
70253;SDS011;57649;42.968;1.608;2023-04-01T07:51:34;11.82;;;3.67;;
70253;SDS011;57649;42.968;1.608;2023-04-01T07:59:16;10.73;;;2.90;;
70253;SDS011;57649;42.968;1.608;2023-04-01T08:05:04;13.55;;;3.85;;
70253;SDS011;57649;42.968;1.608;2023-04-01T08:10:50;12.75;;;2.80;;
70253;SDS011;57649;42.968;1.608;2023-04-01T08:18:27;8.45;;;2.08;;
70253;SDS011;57649;42.968;1.608;2023-04-01T08:21:02;7.95;;;2.08;;
70253;SDS011;57649;42.968;1.608;2023-04-01T08:23:33;11.65;;;2.33;;
70253;SDS011;57649;42.968;1.608;2023-04-01T08:26:04;10.00;;;2.40;;
70253;SDS011;57649;42.968;1.608;2023-04-01T08:34:17;7.53;;;2.28;;
70253;SDS011;57649;42.968;1.608;2023-04-01T08:37:00;10.57;;;3.53;;
70253;SDS011;57649;42.968;1.608;2023-04-01T08:39:42;9.68;;;2.40;;
70253;SDS011;57649;42.968;1.608;2023-04-01T08:56:20;6.18;;;1.85;;
70253;SDS011;57649;42.968;1.608;2023-04-01T08:58:58;7.95;;;2.10;;
70253;SDS011;57649;42.968;1.608;2023-04-01T09:01:58;5.55;;;1.98;;
70253;SDS011;57649;42.968;1.608;2023-04-01T09:12:59;5.95;;;1.88;;
70253;SDS011;57649;42.968;1.608;2023-04-01T09:15:47;6.45;;;2.00;;
70253;SDS011;57649;42.968;1.608;2023-04-01T09:18:47;4.78;;;1.75;;
70253;SDS011;57649;42.968;1.608;2023-04-01T09:21:24;5.15;;;1.95;;
70253;SDS011;57649;42.968;1.608;2023-04-01T09:35:37;4.90;;;1.08;;
70253;SDS011;57649;42.968;1.608;2023-04-01T09:46:21;6.55;;;1.63;;
70253;SDS011;57649;42.968;1.608;2023-04-01T09:57:13;7.70;;;1.48;;
70253;SDS011;57649;42.968;1.608;2023-04-01T10:19:55;9.48;;;1.85;;
70253;SDS011;57649;42.968;1.608;2023-04-01T10:22:30;8.65;;;2.30;;
70253;SDS011;57649;42.968;1.608;2023-04-01T10:27:32;8.73;;;1.70;;
70253;SDS011;57649;42.968;1.608;2023-04-01T10:35:36;9.60;;;1.90;;
70253;SDS011;57649;42.968;1.608;2023-04-01T10:43:52;5.07;;;1.23;;
70253;SDS011;57649;42.968;1.608;2023-04-01T10:49:32;8.23;;;2.28;;
70253;SDS011;57649;42.968;1.608;2023-04-01T11:00:28;10.70;;;2.50;;
70253;SDS011;57649;42.968;1.608;2023-04-01T11:14:49;9.07;;;2.20;;
70253;SDS011;57649;42.968;1.608;2023-04-01T11:39:33;6.97;;;1.90;;
70253;SDS011;57649;42.968;1.608;2023-04-01T11:44:46;4.95;;;1.67;;
70253;SDS011;57649;42.968;1.608;2023-04-01T11:47:37;8.98;;;2.20;;
70253;SDS011;57649;42.968;1.608;2023-04-01T11:50:14;6.25;;;1.60;;
70253;SDS011;57649;42.968;1.608;2023-04-01T11:55:40;8.40;;;2.08;;
70253;SDS011;57649;42.968;1.608;2023-04-01T11:58:19;6.72;;;2.08;;
70253;SDS011;57649;42.968;1.608;2023-04-01T12:06:48;8.55;;;1.65;;
70253;SDS011;57649;42.968;1.608;2023-04-01T12:12:23;4.05;;;1.20;;
70253;SDS011;57649;42.968;1.608;2023-04-01T12:18:00;10.15;;;1.60;;
70253;SDS011;57649;42.968;1.608;2023-04-01T12:20:39;7.40;;;1.42;;
70253;SDS011;57649;42.968;1.608;2023-04-01T12:37:21;9.38;;;2.15;;
70253;SDS011;57649;42.968;1.608;2023-04-01T12:45:49;9.55;;;2.65;;
70253;SDS011;57649;42.968;1.608;2023-04-01T12:48:57;13.45;;;4.18;;
70253;SDS011;57649;42.968;1.608;2023-04-01T12:51:36;8.77;;;2.50;;
70253;SDS011;57649;42.968;1.608;2023-04-01T13:22:15;3.58;;;1.08;;
70253;SDS011;57649;42.968;1.608;2023-04-01T13:24:49;4.43;;;1.13;;
70253;SDS011;57649;42.968;1.608;2023-04-01T13:32:41;8.25;;;3.17;;
70253;SDS011;57649;42.968;1.608;2023-04-01T13:36:10;3.75;;;1.20;;
70253;SDS011;57649;42.968;1.608;2023-04-01T13:41:30;5.93;;;1.35;;
70253;SDS011;57649;42.968;1.608;2023-04-01T13:52:46;5.88;;;0.98;;
70253;SDS011;57649;42.968;1.608;2023-04-01T13:55:30;6.70;;;1.25;;
70253;SDS011;57649;42.968;1.608;2023-04-01T14:03:47;4.20;;;1.40;;
70253;SDS011;57649;42.968;1.608;2023-04-01T14:17:13;2.72;;;1.02;;
70253;SDS011;57649;42.968;1.608;2023-04-01T14:28:26;2.40;;;0.90;;
70253;SDS011;57649;42.968;1.608;2023-04-01T14:33:42;2.60;;;1.00;;
70253;SDS011;57649;42.968;1.608;2023-04-01T14:39:26;2.03;;;1.27;;
70253;SDS011;57649;42.968;1.608;2023-04-01T14:48:05;1.88;;;0.80;;
70253;SDS011;57649;42.968;1.608;2023-04-01T14:50:44;2.08;;;0.85;;
70253;SDS011;57649;42.968;1.608;2023-04-01T14:53:26;2.42;;;0.90;;
70253;SDS011;57649;42.968;1.608;2023-04-01T14:55:57;20.00;;;15.68;;
70253;SDS011;57649;42.968;1.608;2023-04-01T14:58:27;2.58;;;0.75;;
70253;SDS011;57649;42.968;1.608;2023-04-01T15:01:17;4.50;;;1.00;;
70253;SDS011;57649;42.968;1.608;2023-04-01T15:03:53;1.95;;;0.80;;
70253;SDS011;57649;42.968;1.608;2023-04-01T15:14:21;2.08;;;0.70;;
70253;SDS011;57649;42.968;1.608;2023-04-01T15:17:05;1.77;;;0.80;;
70253;SDS011;57649;42.968;1.608;2023-04-01T15:25:27;4.78;;;1.15;;
70253;SDS011;57649;42.968;1.608;2023-04-01T15:30:57;4.43;;;1.42;;
70253;SDS011;57649;42.968;1.608;2023-04-01T15:43:48;4.15;;;1.30;;
70253;SDS011;57649;42.968;1.608;2023-04-01T15:48:58;4.95;;;1.23;;
70253;SDS011;57649;42.968;1.608;2023-04-01T15:51:48;6.90;;;1.33;;
70253;SDS011;57649;42.968;1.608;2023-04-01T15:54:24;5.80;;;1.53;;
70253;SDS011;57649;42.968;1.608;2023-04-01T15:59:52;4.93;;;1.55;;
70253;SDS011;57649;42.968;1.608;2023-04-01T16:07:26;10.63;;;2.00;;
70253;SDS011;57649;42.968;1.608;2023-04-01T16:16:07;2.28;;;1.00;;
70253;SDS011;57649;42.968;1.608;2023-04-01T16:19:08;3.47;;;0.90;;
70253;SDS011;57649;42.968;1.608;2023-04-01T16:22:44;4.60;;;1.13;;
70253;SDS011;57649;42.968;1.608;2023-04-01T16:30:54;7.75;;;0.88;;
70253;SDS011;57649;42.968;1.608;2023-04-01T16:36:24;8.70;;;1.50;;
70253;SDS011;57649;42.968;1.608;2023-04-01T16:39:09;3.10;;;0.90;;
70253;SDS011;57649;42.968;1.608;2023-04-01T16:42:17;6.07;;;1.90;;
70253;SDS011;57649;42.968;1.608;2023-04-01T16:44:54;5.00;;;1.40;;
70253;SDS011;57649;42.968;1.608;2023-04-01T16:47:32;4.20;;;1.00;;
70253;SDS011;57649;42.968;1.608;2023-04-01T16:50:23;4.32;;;0.95;;
70253;SDS011;57649;42.968;1.608;2023-04-01T16:55:48;1.95;;;0.70;;
70253;SDS011;57649;42.968;1.608;2023-04-01T17:03:58;1.23;;;0.70;;
70253;SDS011;57649;42.968;1.608;2023-04-01T17:06:44;0.65;;;0.63;;
70253;SDS011;57649;42.968;1.608;2023-04-01T17:22:34;1.75;;;1.00;;
70253;SDS011;57649;42.968;1.608;2023-04-01T17:25:39;4.40;;;2.15;;
70253;SDS011;57649;42.968;1.608;2023-04-01T17:36:53;9.55;;;5.45;;
70253;SDS011;57649;42.968;1.608;2023-04-01T17:53:33;3.50;;;1.40;;
70253;SDS011;57649;42.968;1.608;2023-04-01T18:04:35;2.30;;;1.00;;
70253;SDS011;57649;42.968;1.608;2023-04-01T18:12:59;2.35;;;1.00;;
70253;SDS011;57649;42.968;1.608;2023-04-01T18:15:44;1.30;;;0.80;;
70253;SDS011;57649;42.968;1.608;2023-04-01T18:23:47;2.60;;;0.77;;
70253;SDS011;57649;42.968;1.608;2023-04-01T18:26:21;1.83;;;0.77;;
70253;SDS011;57649;42.968;1.608;2023-04-01T18:29:04;3.10;;;0.90;;
70253;SDS011;57649;42.968;1.608;2023-04-01T18:31:45;3.17;;;1.23;;
70253;SDS011;57649;42.968;1.608;2023-04-01T18:45:30;6.13;;;2.23;;
70253;SDS011;57649;42.968;1.608;2023-04-01T18:48:08;5.13;;;1.48;;
70253;SDS011;57649;42.968;1.608;2023-04-01T18:50:37;7.25;;;4.15;;
70253;SDS011;57649;42.968;1.608;2023-04-01T18:55:47;3.97;;;1.52;;
70253;SDS011;57649;42.968;1.608;2023-04-01T19:05:40;3.60;;;1.23;;
70253;SDS011;57649;42.968;1.608;2023-04-01T19:13:51;4.05;;;1.77;;
70253;SDS011;57649;42.968;1.608;2023-04-01T19:22:19;4.95;;;1.27;;
70253;SDS011;57649;42.968;1.608;2023-04-01T19:27:53;3.03;;;1.08;;
70253;SDS011;57649;42.968;1.608;2023-04-01T19:30:43;13.55;;;9.85;;
70253;SDS011;57649;42.968;1.608;2023-04-01T19:33:29;3.47;;;0.98;;
70253;SDS011;57649;42.968;1.608;2023-04-01T19:38:53;4.32;;;1.40;;
70253;SDS011;57649;42.968;1.608;2023-04-01T19:41:44;7.72;;;1.67;;
70253;SDS011;57649;42.968;1.608;2023-04-01T19:46:49;7.78;;;1.50;;
70253;SDS011;57649;42.968;1.608;2023-04-01T19:49:19;2.83;;;1.30;;
70253;SDS011;57649;42.968;1.608;2023-04-01T19:52:10;3.83;;;2.05;;
70253;SDS011;57649;42.968;1.608;2023-04-01T20:00:37;3.60;;;0.82;;
70253;SDS011;57649;42.968;1.608;2023-04-01T20:03:15;2.58;;;1.00;;
70253;SDS011;57649;42.968;1.608;2023-04-01T20:17:02;3.42;;;0.90;;
70253;SDS011;57649;42.968;1.608;2023-04-01T20:19:40;3.40;;;0.88;;
70253;SDS011;57649;42.968;1.608;2023-04-01T20:22:22;2.50;;;0.90;;
70253;SDS011;57649;42.968;1.608;2023-04-01T20:24:51;3.90;;;0.93;;
70253;SDS011;57649;42.968;1.608;2023-04-01T20:27:20;3.35;;;0.60;;
70253;SDS011;57649;42.968;1.608;2023-04-01T20:32:28;2.60;;;0.80;;
70253;SDS011;57649;42.968;1.608;2023-04-01T20:46:22;6.20;;;1.00;;
70253;SDS011;57649;42.968;1.608;2023-04-01T20:49:00;13.73;;;1.98;;
70253;SDS011;57649;42.968;1.608;2023-04-01T20:51:54;2.85;;;0.70;;
70253;SDS011;57649;42.968;1.608;2023-04-01T20:57:11;4.53;;;1.40;;
70253;SDS011;57649;42.968;1.608;2023-04-01T20:59:47;3.88;;;1.20;;
70253;SDS011;57649;42.968;1.608;2023-04-01T21:02:32;3.58;;;0.95;;
70253;SDS011;57649;42.968;1.608;2023-04-01T21:08:06;5.85;;;1.02;;
70253;SDS011;57649;42.968;1.608;2023-04-01T21:19:11;5.03;;;1.73;;
70253;SDS011;57649;42.968;1.608;2023-04-01T21:32:34;5.53;;;1.30;;
70253;SDS011;57649;42.968;1.608;2023-04-01T21:52:39;6.30;;;1.20;;
70253;SDS011;57649;42.968;1.608;2023-04-01T22:10:41;5.00;;;1.40;;
70253;SDS011;57649;42.968;1.608;2023-04-01T22:13:23;8.55;;;2.03;;
70253;SDS011;57649;42.968;1.608;2023-04-01T22:16:07;8.10;;;1.90;;
70253;SDS011;57649;42.968;1.608;2023-04-01T22:27:06;6.65;;;1.40;;
70253;SDS011;57649;42.968;1.608;2023-04-01T22:30:15;5.27;;;1.13;;
70253;SDS011;57649;42.968;1.608;2023-04-01T22:35:28;6.05;;;1.50;;
70253;SDS011;57649;42.968;1.608;2023-04-01T22:43:40;6.78;;;1.70;;
70253;SDS011;57649;42.968;1.608;2023-04-01T22:46:26;7.10;;;1.20;;
70253;SDS011;57649;42.968;1.608;2023-04-01T22:49:08;7.68;;;2.00;;
70253;SDS011;57649;42.968;1.608;2023-04-01T22:52:04;5.93;;;1.60;;
70253;SDS011;57649;42.968;1.608;2023-04-01T22:54:49;6.50;;;1.40;;
70253;SDS011;57649;42.968;1.608;2023-04-01T23:00:22;7.55;;;1.73;;
70253;SDS011;57649;42.968;1.608;2023-04-01T23:05:39;7.60;;;1.77;;
70253;SDS011;57649;42.968;1.608;2023-04-01T23:11:08;6.32;;;1.30;;
70253;SDS011;57649;42.968;1.608;2023-04-01T23:13:50;8.48;;;1.92;;
70253;SDS011;57649;42.968;1.608;2023-04-01T23:16:43;9.23;;;1.75;;
70253;SDS011;57649;42.968;1.608;2023-04-01T23:22:02;12.05;;;1.95;;
70253;SDS011;57649;42.968;1.608;2023-04-01T23:24:38;3.47;;;1.60;;
70253;SDS011;57649;42.968;1.608;2023-04-01T23:27:18;8.02;;;1.70;;
70253;SDS011;57649;42.968;1.608;2023-04-01T23:29:52;6.45;;;1.50;;
70253;SDS011;57649;42.968;1.608;2023-04-01T23:32:24;7.57;;;1.67;;
70253;SDS011;57649;42.968;1.608;2023-04-01T23:34:55;9.30;;;2.42;;
70253;SDS011;57649;42.968;1.608;2023-04-01T23:37:23;7.03;;;1.52;;
70253;SDS011;57649;42.968;1.608;2023-04-01T23:39:50;8.27;;;1.67;;
70253;SDS011;57649;42.968;1.608;2023-04-01T23:42:19;15.45;;;2.20;;
70253;SDS011;57649;42.968;1.608;2023-04-01T23:44:48;8.23;;;2.08;;
70253;SDS011;57649;42.968;1.608;2023-04-01T23:47:37;4.80;;;1.33;;
70253;SDS011;57649;42.968;1.608;2023-04-01T23:50:04;6.57;;;1.50;;
70253;SDS011;57649;42.968;1.608;2023-04-01T23:52:39;6.47;;;1.30;;
70253;SDS011;57649;42.968;1.608;2023-04-01T23:57:36;7.55;;;1.42;;
